Time;durP1;ratioP1;P1;durP2;ratioP2;P2;SDS_P1;SDS_P2;PMS_P1;PMS_P2;Temp;Humidity;BMP_temperature;BMP_pressure;BME280_temperature;BME280_humidity;BME280_pressure;Samples;Min_cycle;Max_cycle;Signal;HPM_P1;HPM_P2
2024/01/14 00:00:17;;;;;;;8.00;1.60;;;26.20;99.90;;;;;;4974714;28;20226;-72
2024/01/14 00:02:44;;;;;;;6.27;1.73;;;26.40;99.90;;;;;;4957010;28;20663;-72
2024/01/14 00:05:12;;;;;;;4.93;1.97;;;26.60;99.90;;;;;;4956146;28;20184;-71
2024/01/14 00:07:40;;;;;;;7.30;1.80;;;26.60;99.90;;;;;;4954890;29;20195;-71
2024/01/14 00:10:08;;;;;;;4.27;1.60;;;26.90;99.90;;;;;;4956337;28;20191;-73
2024/01/14 00:12:35;;;;;;;4.03;1.20;;;27.30;99.90;;;;;;4955797;28;20188;-71
2024/01/14 00:15:04;;;;;;;4.87;1.53;;;28.00;99.90;;;;;;4955667;28;20545;-72
2024/01/14 00:17:32;;;;;;;11.53;2.13;;;28.00;99.90;;;;;;4961463;28;20207;-72
2024/01/14 00:20:00;;;;;;;5.60;1.73;;;27.70;99.90;;;;;;4963857;28;20291;-73
2024/01/14 00:22:27;;;;;;;6.10;1.47;;;27.30;99.90;;;;;;4962215;28;20235;-74
2024/01/14 00:24:55;;;;;;;7.57;1.97;;;26.80;99.90;;;;;;4962680;28;20184;-73
2024/01/14 00:27:23;;;;;;;5.37;1.60;;;26.60;99.90;;;;;;4967515;28;20242;-74
2024/01/14 00:29:51;;;;;;;6.20;2.10;;;26.40;99.90;;;;;;4955830;28;20195;-73
2024/01/14 00:32:21;;;;;;;5.27;1.93;;;26.30;99.90;;;;;;4955553;28;20187;-74
2024/01/14 00:34:48;;;;;;;8.20;1.70;;;26.40;99.90;;;;;;4955491;28;20195;-73
2024/01/14 00:37:16;;;;;;;8.33;2.57;;;26.60;99.90;;;;;;4955256;28;20188;-73
2024/01/14 00:39:44;;;;;;;6.40;2.00;;;26.90;99.90;;;;;;4971039;28;20265;-72
2024/01/14 00:42:11;;;;;;;7.13;1.67;;;26.90;99.90;;;;;;4963237;28;20188;-74
2024/01/14 00:44:42;;;;;;;7.23;2.00;;;26.90;99.90;;;;;;4955485;28;20184;-73
2024/01/14 00:47:10;;;;;;;6.20;1.87;;;27.50;99.90;;;;;;4955001;28;20186;-74
2024/01/14 00:56:23;;;;;;;8.23;2.27;;;27.40;99.90;;;;;;4911592;28;20631;-74
2024/01/14 01:06:26;;;;;;;7.00;1.80;;;29.30;99.90;;;;;;4955181;29;20247;-76
2024/01/14 01:08:53;;;;;;;8.20;1.93;;;29.90;99.90;;;;;;4957434;28;20222;-78
2024/01/14 01:11:21;;;;;;;8.90;2.17;;;29.60;99.90;;;;;;4971485;28;20206;-74
2024/01/14 01:13:49;;;;;;;9.33;2.50;;;29.20;99.90;;;;;;4973670;28;20202;-72
2024/01/14 01:16:17;;;;;;;9.60;2.73;;;28.60;99.90;;;;;;4974215;28;20259;-71
2024/01/14 01:18:44;;;;;;;8.20;2.40;;;28.20;99.90;;;;;;4973563;28;20540;-72
2024/01/14 01:21:16;;;;;;;6.87;1.80;;;28.40;99.90;;;;;;4973726;28;20239;-71
2024/01/14 01:23:44;;;;;;;6.13;1.67;;;29.40;99.90;;;;;;4969844;28;20183;-71
2024/01/14 01:29:34;;;;;;;10.20;2.30;;;30.90;99.90;;;;;;4954310;28;20198;-74
2024/01/14 01:32:02;;;;;;;13.53;2.20;;;29.60;99.90;;;;;;4972603;28;20175;-72
2024/01/14 01:34:29;;;;;;;9.93;2.33;;;28.90;99.90;;;;;;4973580;28;20251;-74
2024/01/14 01:36:58;;;;;;;14.97;2.20;;;28.50;99.90;;;;;;4975568;28;20704;-75
2024/01/14 01:39:25;;;;;;;8.00;2.27;;;28.30;99.90;;;;;;4962840;28;20283;-73
2024/01/14 01:41:53;;;;;;;6.43;1.90;;;28.10;99.90;;;;;;4969414;28;20199;-73
2024/01/14 01:44:21;;;;;;;4.80;1.60;;;28.10;99.90;;;;;;4973829;28;20182;-72
2024/01/14 01:46:49;;;;;;;3.93;1.67;;;28.20;99.90;;;;;;4973677;28;20218;-77
2024/01/14 01:49:17;;;;;;;4.53;1.27;;;28.40;99.90;;;;;;4973083;28;20183;-75
2024/01/14 01:51:49;;;;;;;7.90;1.37;;;28.30;99.90;;;;;;4962050;28;20246;-73
2024/01/14 01:54:21;;;;;;;1.87;1.07;;;28.00;99.90;;;;;;4954374;28;20201;-71
2024/01/14 01:56:51;;;;;;;5.50;1.63;;;28.00;99.90;;;;;;4953889;28;20176;-71
2024/01/14 01:59:19;;;;;;;9.50;1.80;;;27.80;99.90;;;;;;4954145;28;20725;-71
2024/01/14 02:01:48;;;;;;;8.97;1.87;;;27.80;99.90;;;;;;4954240;28;20593;-75
2024/01/14 02:04:16;;;;;;;5.93;1.73;;;28.00;99.90;;;;;;4953596;28;20211;-71
2024/01/14 02:06:44;;;;;;;6.60;2.13;;;28.50;99.90;;;;;;4954085;28;20184;-71
2024/01/14 02:09:12;;;;;;;7.13;2.33;;;28.90;99.90;;;;;;4953788;28;20619;-70
2024/01/14 02:11:40;;;;;;;6.60;1.57;;;29.60;99.90;;;;;;4953800;28;20557;-71
2024/01/14 02:14:07;;;;;;;10.50;2.28;;;30.20;99.90;;;;;;4953876;29;20661;-71
2024/01/14 02:16:35;;;;;;;8.20;2.13;;;30.20;99.90;;;;;;4953951;28;20180;-72
2024/01/14 02:19:03;;;;;;;6.03;2.00;;;30.00;99.90;;;;;;4961386;28;20191;-70
2024/01/14 02:21:42;;;;;;;10.03;2.13;;;30.00;99.90;;;;;;4971744;28;20230;-72
2024/01/14 02:24:20;;;;;;;6.60;2.10;;;30.10;99.90;;;;;;4954396;28;20194;-72
2024/01/14 02:26:48;;;;;;;7.70;2.70;;;29.80;99.90;;;;;;4953877;28;20255;-72
2024/01/14 02:29:16;;;;;;;9.93;2.17;;;29.60;99.90;;;;;;4952106;28;20546;-72
2024/01/14 02:31:44;;;;;;;11.00;2.60;;;30.00;99.90;;;;;;4953207;28;20203;-71
2024/01/14 02:34:12;;;;;;;6.23;2.00;;;29.60;99.90;;;;;;4972652;28;20661;-72
2024/01/14 02:36:40;;;;;;;6.20;2.03;;;28.90;99.90;;;;;;4972980;28;20171;-71
2024/01/14 02:39:09;;;;;;;7.40;2.30;;;29.20;99.90;;;;;;4971966;28;20656;-71
2024/01/14 02:41:37;;;;;;;10.90;2.80;;;29.20;99.90;;;;;;4972691;28;20302;-71
2024/01/14 02:44:05;;;;;;;9.03;2.53;;;29.00;99.90;;;;;;4954729;28;20192;-72
2024/01/14 02:46:32;;;;;;;9.60;2.37;;;28.50;99.90;;;;;;4953015;28;20190;-71
2024/01/14 02:49:00;;;;;;;5.03;2.00;;;28.20;99.90;;;;;;4953447;28;20203;-72
2024/01/14 02:51:28;;;;;;;14.93;2.50;;;28.20;99.90;;;;;;4956677;28;20215;-72
2024/01/14 02:53:55;;;;;;;12.80;2.50;;;27.90;99.90;;;;;;4962554;28;20183;-73
2024/01/14 02:56:23;;;;;;;11.53;3.40;;;27.80;99.90;;;;;;4972407;28;20266;-71
2024/01/14 02:58:51;;;;;;;12.97;3.03;;;27.60;99.90;;;;;;4972702;28;20688;-73
2024/01/14 03:01:18;;;;;;;9.20;2.93;;;27.50;99.90;;;;;;4969068;28;20596;-70
2024/01/14 03:03:47;;;;;;;10.67;3.00;;;27.30;99.90;;;;;;4971324;28;20479;-73
2024/01/14 03:06:15;;;;;;;11.63;2.30;;;27.20;99.90;;;;;;4972705;28;20195;-73
2024/01/14 03:08:42;;;;;;;14.37;3.33;;;27.10;99.90;;;;;;4972279;28;20273;-72
2024/01/14 03:11:10;;;;;;;12.70;2.87;;;27.10;99.90;;;;;;4972161;28;20180;-72
2024/01/14 03:13:38;;;;;;;13.53;2.30;;;26.90;99.90;;;;;;4953205;28;20761;-76
2024/01/14 03:16:06;;;;;;;14.30;3.33;;;26.90;99.90;;;;;;4952912;28;20230;-73
2024/01/14 03:18:33;;;;;;;7.83;2.63;;;26.60;99.90;;;;;;4962150;28;20701;-76
2024/01/14 03:21:02;;;;;;;13.60;2.60;;;26.60;99.90;;;;;;4972299;28;20239;-73
2024/01/14 03:23:29;;;;;;;7.33;1.80;;;26.40;99.90;;;;;;4960578;28;20270;-75
2024/01/14 03:25:57;;;;;;;6.27;2.30;;;26.20;99.90;;;;;;4978584;28;20676;-72
2024/01/14 03:28:25;;;;;;;9.63;2.10;;;26.10;99.90;;;;;;4975895;28;20179;-72
2024/01/14 03:30:52;;;;;;;7.83;2.47;;;26.20;99.90;;;;;;4971859;28;20187;-72
2024/01/14 03:33:20;;;;;;;5.20;1.90;;;26.10;99.90;;;;;;4971161;28;20553;-76
2024/01/14 03:35:48;;;;;;;7.53;1.77;;;26.10;99.90;;;;;;4972275;28;20728;-73
2024/01/14 03:38:15;;;;;;;4.33;1.33;;;26.10;99.90;;;;;;4970879;28;20183;-73
2024/01/14 03:40:43;;;;;;;4.37;1.27;;;26.10;99.90;;;;;;4971053;28;20297;-73
2024/01/14 03:43:11;;;;;;;6.43;1.83;;;26.30;99.90;;;;;;4953126;28;20172;-73
2024/01/14 03:45:38;;;;;;;6.70;1.43;;;26.40;99.90;;;;;;4953607;28;20183;-72
2024/01/14 03:48:06;;;;;;;4.63;1.57;;;26.50;99.90;;;;;;4972333;28;20593;-72
2024/01/14 03:50:34;;;;;;;4.07;1.00;;;26.60;99.90;;;;;;4975205;28;20183;-73
2024/01/14 03:53:02;;;;;;;7.97;1.73;;;26.60;99.90;;;;;;4960279;28;20184;-73
2024/01/14 03:58:51;;;;;;;6.63;1.97;;;26.90;99.90;;;;;;4975731;28;20179;-72
2024/01/14 04:01:19;;;;;;;5.47;1.30;;;27.30;99.90;;;;;;4973778;28;20590;-75
2024/01/14 04:06:51;;;;;;;4.17;1.37;;;27.70;99.90;;;;;;4974855;28;20199;-73
2024/01/14 04:09:18;;;;;;;8.80;2.00;;;27.60;99.90;;;;;;4974894;28;20195;-75
2024/01/14 04:11:46;;;;;;;8.87;2.07;;;27.50;99.90;;;;;;4975293;28;20179;-76
2024/01/14 04:14:14;;;;;;;6.97;1.60;;;27.60;99.90;;;;;;4975503;28;20944;-76
2024/01/14 04:16:42;;;;;;;11.57;2.67;;;27.20;99.90;;;;;;4974967;28;20687;-72
2024/01/14 04:19:10;;;;;;;11.40;2.20;;;27.00;99.90;;;;;;4975309;28;20649;-72
2024/01/14 04:21:37;;;;;;;12.40;2.53;;;26.80;99.90;;;;;;4974476;28;20618;-73
2024/01/14 04:24:06;;;;;;;7.37;2.33;;;26.80;99.90;;;;;;4974586;28;20186;-74
2024/01/14 04:26:33;;;;;;;12.53;2.40;;;27.00;99.90;;;;;;4976707;28;20217;-73
2024/01/14 04:29:01;;;;;;;11.40;2.47;;;27.10;99.90;;;;;;4974927;28;20570;-73
2024/01/14 04:31:29;;;;;;;9.70;2.10;;;27.30;99.90;;;;;;4973108;28;20595;-72
2024/01/14 04:33:58;;;;;;;10.97;1.80;;;27.40;99.90;;;;;;4974616;28;20182;-75
2024/01/14 04:36:26;;;;;;;5.80;1.90;;;27.70;99.90;;;;;;4974689;28;20270;-72
2024/01/14 04:38:54;;;;;;;9.10;1.93;;;27.60;99.90;;;;;;4974462;28;20724;-72
2024/01/14 04:41:22;;;;;;;5.07;1.90;;;27.40;99.90;;;;;;4974787;28;20783;-72
2024/01/14 04:43:50;;;;;;;11.83;2.33;;;26.80;99.90;;;;;;4974870;28;20250;-71
2024/01/14 04:46:19;;;;;;;8.70;2.20;;;26.30;99.90;;;;;;4974523;28;20179;-71
2024/01/14 04:48:47;;;;;;;13.97;2.70;;;25.90;99.90;;;;;;4974643;28;20175;-71
2024/01/14 04:51:17;;;;;;;12.07;3.13;;;25.50;99.90;;;;;;4974842;28;20171;-73
2024/01/14 04:53:45;;;;;;;12.37;2.67;;;25.20;99.90;;;;;;4974009;28;20756;-72
2024/01/14 04:56:13;;;;;;;10.77;2.80;;;25.00;99.90;;;;;;4974726;28;20183;-72
2024/01/14 04:58:40;;;;;;;7.47;2.20;;;24.80;99.90;;;;;;4974568;28;20180;-71
2024/01/14 05:01:08;;;;;;;6.80;2.33;;;24.60;99.90;;;;;;4973995;28;20221;-74
2024/01/14 05:03:36;;;;;;;15.03;2.97;;;24.50;99.90;;;;;;4969245;28;20189;-71
2024/01/14 05:06:04;;;;;;;13.60;3.20;;;24.40;99.90;;;;;;4953829;29;20212;-72
2024/01/14 05:08:32;;;;;;;13.70;3.23;;;24.40;99.90;;;;;;4954568;28;20646;-72
2024/01/14 05:11:00;;;;;;;14.00;3.47;;;24.30;99.90;;;;;;4954862;28;20634;-72
2024/01/14 05:13:28;;;;;;;18.63;3.07;;;24.20;99.90;;;;;;4954902;28;20199;-76
2024/01/14 05:15:55;;;;;;;10.53;3.40;;;24.20;99.90;;;;;;4954540;28;20179;-72
2024/01/14 05:18:23;;;;;;;22.43;4.20;;;24.40;99.90;;;;;;4954947;28;20176;-75
2024/01/14 05:20:52;;;;;;;13.03;3.60;;;24.60;99.90;;;;;;4956176;28;20211;-72
2024/01/14 05:23:21;;;;;;;18.47;4.30;;;24.60;99.90;;;;;;4959922;28;20185;-73
2024/01/14 05:25:49;;;;;;;17.50;3.90;;;24.80;99.90;;;;;;4957912;28;20216;-73
2024/01/14 05:28:16;;;;;;;12.70;3.43;;;25.00;99.90;;;;;;4954793;28;20194;-71
2024/01/14 05:30:44;;;;;;;18.33;3.57;;;25.40;99.90;;;;;;4954302;28;20188;-71
2024/01/14 05:33:12;;;;;;;17.53;3.50;;;25.60;99.90;;;;;;4953323;29;20536;-74
2024/01/14 05:35:39;;;;;;;18.80;3.30;;;25.60;99.90;;;;;;4954595;28;20180;-71
2024/01/14 05:38:07;;;;;;;17.80;3.03;;;25.50;99.90;;;;;;4954081;28;20317;-70
2024/01/14 05:40:35;;;;;;;12.40;2.87;;;25.40;99.90;;;;;;4954401;28;20222;-72
2024/01/14 05:43:03;;;;;;;11.40;2.60;;;25.10;99.90;;;;;;4954452;28;20180;-72
2024/01/14 05:45:31;;;;;;;15.80;2.57;;;24.80;99.90;;;;;;4953708;28;20266;-72
2024/01/14 05:47:58;;;;;;;13.47;3.03;;;24.50;99.90;;;;;;4954294;28;20180;-73
2024/01/14 05:50:26;;;;;;;14.83;3.93;;;24.30;99.90;;;;;;4954232;28;20184;-72
2024/01/14 05:52:54;;;;;;;15.30;3.13;;;24.40;99.90;;;;;;4953913;28;20626;-72
2024/01/14 05:55:22;;;;;;;14.07;3.30;;;24.40;99.90;;;;;;4954163;28;20180;-72
2024/01/14 05:57:50;;;;;;;14.53;3.37;;;24.40;99.90;;;;;;4954286;28;20191;-73
2024/01/14 06:00:22;;;;;;;16.87;3.43;;;24.60;99.90;;;;;;4960770;28;20310;-72
2024/01/14 06:02:50;;;;;;;15.13;3.30;;;24.80;99.90;;;;;;4973459;28;20660;-73
2024/01/14 06:05:17;;;;;;;18.53;3.40;;;25.10;99.90;;;;;;4973226;28;20174;-72
2024/01/14 06:07:46;;;;;;;18.23;3.50;;;25.60;99.90;;;;;;4972838;28;20229;-71
2024/01/14 06:10:15;;;;;;;16.27;3.00;;;25.80;99.90;;;;;;4973235;28;20190;-74
2024/01/14 06:12:42;;;;;;;14.97;2.70;;;25.60;99.90;;;;;;4973146;28;20180;-72
2024/01/14 06:15:10;;;;;;;13.37;2.80;;;25.40;99.90;;;;;;4972087;28;20599;-73
2024/01/14 06:17:38;;;;;;;11.23;2.63;;;25.10;99.90;;;;;;4973098;28;20254;-72
2024/01/14 06:20:07;;;;;;;16.87;2.87;;;25.00;99.90;;;;;;4973057;28;20585;-77
2024/01/14 06:22:34;;;;;;;12.37;2.33;;;24.90;99.90;;;;;;4972581;28;20730;-72
2024/01/14 06:25:02;;;;;;;24.30;3.63;;;25.10;99.90;;;;;;4971778;28;20253;-74
2024/01/14 06:27:30;;;;;;;14.20;2.30;;;25.10;99.90;;;;;;4971513;28;20257;-71
2024/01/14 06:30:00;;;;;;;15.87;2.77;;;25.20;99.90;;;;;;4971339;28;20176;-71
2024/01/14 06:32:27;;;;;;;16.97;3.00;;;25.50;99.90;;;;;;4954141;28;20203;-70
2024/01/14 06:34:55;;;;;;;14.17;3.40;;;25.70;99.90;;;;;;4953647;28;20187;-72
2024/01/14 06:40:45;;;;;;;9.23;2.50;;;25.80;99.90;;;;;;4971901;28;20281;-71
2024/01/14 06:43:12;;;;;;;14.07;3.30;;;25.60;99.90;;;;;;4960238;28;20176;-72
2024/01/14 06:45:40;;;;;;;8.70;2.20;;;25.40;99.90;;;;;;4953572;28;20188;-72
2024/01/14 06:48:08;;;;;;;12.10;3.10;;;25.30;99.90;;;;;;4953475;28;20176;-71
2024/01/14 06:50:36;;;;;;;17.43;3.33;;;25.40;99.90;;;;;;4961222;28;20214;-72
2024/01/14 06:56:25;;;;;;;18.20;3.80;;;25.20;99.90;;;;;;4970423;28;20182;-71
2024/01/14 06:58:53;;;;;;;17.37;3.97;;;25.10;99.90;;;;;;4972442;28;20175;-71
2024/01/14 07:01:21;;;;;;;21.90;3.47;;;25.10;99.90;;;;;;4972546;28;20258;-75
2024/01/14 07:03:49;;;;;;;19.63;3.70;;;25.00;99.90;;;;;;4971229;28;20202;-72
2024/01/14 07:06:17;;;;;;;12.53;2.70;;;25.10;99.90;;;;;;4962157;28;20188;-73
2024/01/14 07:08:44;;;;;;;13.17;2.87;;;25.10;99.90;;;;;;4953379;29;20192;-74
2024/01/14 07:11:12;;;;;;;14.33;3.40;;;25.00;99.90;;;;;;4953522;28;20187;-73
2024/01/14 07:13:43;;;;;;;10.73;2.50;;;25.00;99.90;;;;;;4964990;28;20187;-72
2024/01/14 07:16:11;;;;;;;16.07;3.77;;;25.00;99.90;;;;;;4966852;28;20626;-72
2024/01/14 07:18:39;;;;;;;14.43;2.77;;;25.00;99.90;;;;;;4953965;28;20179;-70
2024/01/14 07:21:12;;;;;;;9.10;2.63;;;24.90;99.90;;;;;;4966814;28;20347;-79
2024/01/14 07:23:40;;;;;;;17.80;3.60;;;25.00;99.90;;;;;;4953065;28;20192;-80
2024/01/14 07:26:19;;;;;;;13.50;3.57;;;25.00;99.90;;;;;;4954784;28;20187;-78
2024/01/14 07:28:46;;;;;;;16.83;3.07;;;25.00;99.90;;;;;;4957852;28;20645;-77
2024/01/14 07:31:20;;;;;;;20.03;3.60;;;25.00;99.90;;;;;;4976224;28;20732;-76
2024/01/14 07:33:50;;;;;;;12.87;2.87;;;24.90;99.90;;;;;;4976157;28;20193;-77
2024/01/14 07:36:18;;;;;;;14.07;3.23;;;24.80;99.90;;;;;;4975607;28;20191;-77
2024/01/14 07:38:46;;;;;;;16.20;2.97;;;24.80;99.90;;;;;;4974748;28;20175;-76
2024/01/14 07:41:15;;;;;;;13.70;2.73;;;24.80;99.90;;;;;;4956558;28;20258;-77
2024/01/14 07:43:43;;;;;;;19.53;3.23;;;24.80;99.90;;;;;;4956193;28;20914;-77
2024/01/14 07:46:11;;;;;;;19.03;3.30;;;24.70;99.90;;;;;;4956804;28;20725;-74
2024/01/14 07:48:41;;;;;;;14.40;3.07;;;24.60;99.90;;;;;;4969709;28;20684;-76
2024/01/14 07:51:09;;;;;;;14.83;3.50;;;24.60;99.90;;;;;;4956125;28;20658;-75
2024/01/14 07:53:37;;;;;;;19.40;3.33;;;24.50;99.90;;;;;;4964097;28;20649;-74
2024/01/14 07:56:05;;;;;;;14.10;3.17;;;24.50;99.90;;;;;;4971217;28;20191;-78
2024/01/14 07:58:33;;;;;;;17.47;3.47;;;24.50;99.90;;;;;;4966282;28;20187;-79
2024/01/14 08:01:01;;;;;;;15.60;3.87;;;24.50;99.90;;;;;;4968072;28;20222;-77
2024/01/14 08:03:29;;;;;;;15.10;3.03;;;24.50;99.90;;;;;;4956259;28;20244;-77
2024/01/14 08:05:57;;;;;;;20.93;3.57;;;24.50;99.90;;;;;;4954696;29;20275;-76
2024/01/14 08:08:24;;;;;;;17.60;4.00;;;24.40;99.90;;;;;;4956334;28;20175;-77
2024/01/14 08:10:52;;;;;;;16.30;3.93;;;24.50;99.90;;;;;;4954718;29;20295;-76
2024/01/14 08:13:20;;;;;;;13.67;3.43;;;24.50;99.90;;;;;;4954256;29;20267;-74
2024/01/14 08:15:48;;;;;;;17.97;3.53;;;24.40;99.90;;;;;;4955874;28;20539;-76
2024/01/14 08:18:16;;;;;;;21.13;3.87;;;24.40;99.90;;;;;;4955869;28;20188;-76
2024/01/14 08:20:44;;;;;;;18.07;3.50;;;24.30;99.90;;;;;;4955283;28;20211;-74
2024/01/14 08:23:11;;;;;;;19.10;4.13;;;24.20;99.90;;;;;;4954281;29;20176;-77
2024/01/14 08:25:39;;;;;;;18.37;3.63;;;24.30;99.90;;;;;;4969971;28;20219;-75
2024/01/14 08:28:07;;;;;;;18.97;3.80;;;24.20;99.90;;;;;;4976128;28;20191;-75
2024/01/14 08:30:35;;;;;;;27.17;3.63;;;24.20;99.90;;;;;;4975205;28;20609;-75
2024/01/14 08:33:02;;;;;;;22.87;3.90;;;24.20;99.90;;;;;;4964182;28;20184;-74
2024/01/14 08:35:30;;;;;;;15.00;3.17;;;24.20;99.90;;;;;;4973367;28;20224;-76
2024/01/14 08:37:58;;;;;;;15.57;3.57;;;24.20;99.90;;;;;;4975286;28;20187;-77
2024/01/14 08:40:25;;;;;;;16.77;3.57;;;24.20;99.90;;;;;;4976390;28;20215;-77
2024/01/14 08:42:55;;;;;;;14.20;3.23;;;24.20;99.90;;;;;;4965966;28;20683;-74
2024/01/14 08:45:22;;;;;;;12.90;2.73;;;24.20;99.90;;;;;;4956946;28;20184;-75
2024/01/14 08:47:50;;;;;;;21.20;3.80;;;24.20;99.90;;;;;;4957059;28;20523;-75
2024/01/14 08:50:20;;;;;;;27.50;4.53;;;24.10;99.90;;;;;;4956985;29;20176;-74
2024/01/14 08:52:48;;;;;;;17.63;4.27;;;24.20;99.90;;;;;;4969881;28;20183;-75
2024/01/14 08:55:15;;;;;;;18.17;4.03;;;24.10;99.90;;;;;;4975957;28;20172;-78
2024/01/14 08:57:43;;;;;;;28.53;4.20;;;24.10;99.90;;;;;;4976116;28;20218;-76
2024/01/14 09:00:11;;;;;;;18.50;3.97;;;24.00;99.90;;;;;;4976074;28;20233;-75
2024/01/14 09:02:39;;;;;;;13.67;3.50;;;24.00;99.90;;;;;;4976013;28;20183;-75
2024/01/14 09:05:07;;;;;;;17.27;3.30;;;23.90;99.90;;;;;;4976038;28;20171;-76
2024/01/14 09:07:34;;;;;;;15.97;2.70;;;23.80;99.90;;;;;;4976138;28;20641;-74
2024/01/14 09:10:02;;;;;;;10.27;2.10;;;23.80;99.90;;;;;;4976017;28;20179;-75
2024/01/14 09:12:30;;;;;;;13.37;2.73;;;23.70;99.90;;;;;;4975856;28;20266;-75
2024/01/14 09:14:58;;;;;;;9.00;2.77;;;23.70;99.90;;;;;;4975734;28;20175;-74
2024/01/14 09:17:25;;;;;;;16.77;3.70;;;23.60;99.90;;;;;;4975852;28;20215;-74
2024/01/14 09:19:53;;;;;;;16.27;4.50;;;23.70;99.90;;;;;;4975778;28;20210;-76
2024/01/14 09:22:21;;;;;;;20.03;3.53;;;23.60;99.90;;;;;;4975117;28;20249;-74
2024/01/14 09:24:48;;;;;;;16.47;3.93;;;23.60;99.90;;;;;;4975958;28;20175;-76
2024/01/14 09:27:17;;;;;;;17.90;3.20;;;23.50;99.90;;;;;;4975550;28;20261;-77
2024/01/14 09:29:45;;;;;;;22.80;4.90;;;23.50;99.90;;;;;;4974270;28;20618;-73
2024/01/14 09:32:12;;;;;;;19.37;4.30;;;23.50;99.90;;;;;;4972317;28;20279;-74
2024/01/14 09:34:40;;;;;;;22.90;4.03;;;23.50;99.90;;;;;;4965639;28;20237;-73
2024/01/14 09:37:08;;;;;;;22.63;4.67;;;23.60;99.90;;;;;;4958683;28;20188;-74
2024/01/14 09:39:35;;;;;;;27.33;5.40;;;23.60;99.90;;;;;;4956136;28;20184;-76
2024/01/14 09:42:18;;;;;;;27.13;5.57;;;23.70;99.90;;;;;;4963595;28;20236;-73
2024/01/14 09:44:47;;;;;;;20.93;4.27;;;23.70;99.90;;;;;;4964223;28;20176;-73
2024/01/14 09:47:17;;;;;;;28.33;5.70;;;23.70;99.90;;;;;;4965090;28;20183;-74
2024/01/14 09:49:44;;;;;;;24.83;4.93;;;23.60;99.90;;;;;;4965107;28;20171;-72
2024/01/14 09:52:13;;;;;;;28.27;5.73;;;23.50;99.90;;;;;;4969060;28;20183;-76
2024/01/14 09:54:41;;;;;;;31.13;5.03;;;23.50;99.90;;;;;;4975244;28;20187;-75
2024/01/14 09:57:12;;;;;;;22.97;5.20;;;23.40;99.90;;;;;;4975332;28;20241;-74
2024/01/14 09:59:46;;;;;;;22.33;5.43;;;23.40;99.90;;;;;;4975218;28;20703;-73
2024/01/14 10:02:14;;;;;;;19.50;4.87;;;23.30;99.90;;;;;;4975111;28;20222;-75
2024/01/14 10:04:43;;;;;;;32.03;5.67;;;23.30;99.90;;;;;;4975217;28;20172;-76
2024/01/14 10:07:11;;;;;;;26.67;5.60;;;23.10;99.90;;;;;;4975115;28;20195;-76
2024/01/14 10:09:43;;;;;;;25.80;5.87;;;23.00;99.90;;;;;;4974875;28;20179;-76
2024/01/14 10:12:12;;;;;;;27.30;6.00;;;22.90;99.90;;;;;;4974527;28;20790;-74
2024/01/14 10:14:40;;;;;;;22.47;5.20;;;22.90;99.90;;;;;;4974777;28;20696;-76
2024/01/14 10:17:08;;;;;;;32.57;7.13;;;22.80;99.90;;;;;;4968964;28;20558;-74
2024/01/14 10:19:37;;;;;;;41.53;7.30;;;22.80;99.90;;;;;;4959177;28;20219;-76
2024/01/14 10:22:05;;;;;;;28.10;5.50;;;22.80;99.90;;;;;;4955145;28;20243;-75
2024/01/14 10:24:34;;;;;;;27.90;5.43;;;22.70;99.90;;;;;;4955514;28;20184;-76
2024/01/14 10:27:02;;;;;;;28.87;5.80;;;22.70;99.90;;;;;;4955605;28;20634;-76
2024/01/14 10:29:31;;;;;;;26.47;5.73;;;22.70;99.90;;;;;;4955423;28;20176;-76
2024/01/14 10:31:58;;;;;;;29.87;5.80;;;22.70;99.90;;;;;;4955191;28;20184;-76
2024/01/14 10:34:27;;;;;;;33.23;6.03;;;22.80;99.90;;;;;;4959834;28;20287;-73
2024/01/14 10:37:01;;;;;;;28.53;4.80;;;22.80;99.90;;;;;;4971839;28;20265;-76
2024/01/14 10:39:33;;;;;;;36.40;6.87;;;22.80;99.90;;;;;;4974615;28;20267;-75
2024/01/14 10:42:01;;;;;;;32.70;5.77;;;22.70;99.90;;;;;;4974333;28;20240;-73
2024/01/14 10:44:30;;;;;;;24.13;5.93;;;22.60;99.90;;;;;;4972899;28;20201;-76
2024/01/14 10:47:03;;;;;;;32.90;5.47;;;22.60;99.90;;;;;;4973092;28;20616;-74
2024/01/14 10:49:34;;;;;;;31.90;5.83;;;22.60;99.90;;;;;;4974579;28;20263;-73
2024/01/14 10:52:10;;;;;;;31.90;6.00;;;22.60;99.90;;;;;;4974105;28;20179;-74
2024/01/14 10:54:45;;;;;;;29.73;6.13;;;22.70;99.90;;;;;;4974231;28;20194;-73
2024/01/14 10:57:28;;;;;;;20.87;4.73;;;22.70;99.90;;;;;;4974529;28;20492;-73
2024/01/14 10:59:59;;;;;;;29.73;5.30;;;22.70;99.90;;;;;;4974082;28;20675;-73
2024/01/14 11:02:29;;;;;;;31.43;5.43;;;22.70;99.90;;;;;;4976997;28;20195;-73
2024/01/14 11:04:57;;;;;;;25.17;5.77;;;22.60;99.90;;;;;;4978772;28;20175;-73
2024/01/14 11:07:25;;;;;;;35.30;6.40;;;22.70;99.90;;;;;;4978228;28;20183;-71
2024/01/14 11:09:55;;;;;;;24.93;5.27;;;22.60;99.90;;;;;;4978217;28;20540;-74
2024/01/14 11:12:29;;;;;;;29.20;6.17;;;22.60;99.90;;;;;;4978188;28;20257;-71
2024/01/14 11:15:15;;;;;;;30.27;6.53;;;22.70;99.90;;;;;;4977920;28;20635;-71
2024/01/14 11:18:09;;;;;;;30.83;5.93;;;22.70;99.90;;;;;;4978365;28;20237;-71
2024/01/14 11:20:41;;;;;;;21.47;4.50;;;22.70;99.90;;;;;;4977948;28;20234;-75
2024/01/14 11:23:09;;;;;;;30.60;5.87;;;22.60;99.90;;;;;;4977789;28;20675;-73
2024/01/14 11:25:38;;;;;;;24.27;4.57;;;22.50;99.90;;;;;;4977810;28;20537;-74
2024/01/14 11:28:07;;;;;;;17.60;3.67;;;22.50;99.90;;;;;;4977864;28;20183;-74
2024/01/14 11:30:53;;;;;;;18.53;3.93;;;22.50;99.90;;;;;;4977552;28;20187;-74
2024/01/14 11:33:46;;;;;;;18.40;4.23;;;22.50;99.90;;;;;;4985406;28;20202;-74
2024/01/14 11:36:34;;;;;;;16.53;3.47;;;22.40;99.90;;;;;;4977562;28;20214;-74
2024/01/14 11:39:05;;;;;;;19.47;4.57;;;22.40;99.90;;;;;;4977404;28;20186;-74
2024/01/14 11:41:36;;;;;;;20.57;4.20;;;22.20;99.90;;;;;;4977358;28;20243;-75
2024/01/14 11:44:14;;;;;;;20.37;4.63;;;22.20;99.90;;;;;;4977758;28;20178;-75
2024/01/14 11:46:47;;;;;;;23.67;4.50;;;22.20;99.90;;;;;;4977502;28;20694;-72
2024/01/14 11:49:20;;;;;;;24.10;5.00;;;22.10;99.90;;;;;;4977586;28;20179;-74
2024/01/14 11:52:03;;;;;;;27.53;4.50;;;22.10;99.90;;;;;;4977342;28;20270;-74
2024/01/14 11:54:33;;;;;;;23.50;4.73;;;22.10;99.90;;;;;;4977694;28;20668;-75
2024/01/14 11:57:20;;;;;;;20.40;4.47;;;22.10;99.90;;;;;;4977240;28;20203;-75
2024/01/14 11:59:49;;;;;;;27.97;5.03;;;22.00;99.90;;;;;;4977521;28;20172;-75
2024/01/14 12:02:16;;;;;;;20.17;4.93;;;22.00;99.90;;;;;;4977419;28;20647;-75
2024/01/14 12:04:44;;;;;;;15.40;4.40;;;22.00;99.90;;;;;;4977378;28;20178;-75
2024/01/14 12:07:19;;;;;;;21.57;5.60;;;22.00;99.90;;;;;;4976016;28;20179;-74
2024/01/14 12:09:56;;;;;;;27.03;5.13;;;22.10;99.90;;;;;;4977226;28;20179;-74
2024/01/14 12:12:26;;;;;;;24.90;5.63;;;21.90;99.90;;;;;;4976067;28;20679;-73
2024/01/14 12:14:54;;;;;;;29.73;5.20;;;21.80;99.90;;;;;;4975677;28;20190;-73
2024/01/14 12:17:21;;;;;;;19.97;4.27;;;21.70;99.90;;;;;;4977093;28;20180;-74
2024/01/14 12:19:58;;;;;;;26.20;4.83;;;21.70;99.90;;;;;;4977006;28;20176;-74
2024/01/14 12:22:26;;;;;;;30.77;5.40;;;21.60;99.90;;;;;;4976587;28;20321;-73
2024/01/14 12:24:55;;;;;;;27.50;5.67;;;21.50;99.90;;;;;;4976738;28;20175;-73
2024/01/14 12:27:22;;;;;;;23.43;4.40;;;21.60;99.90;;;;;;4975671;28;20185;-73
2024/01/14 12:29:50;;;;;;;26.67;4.83;;;21.50;99.90;;;;;;4976641;28;20172;-73
2024/01/14 12:32:18;;;;;;;31.30;5.10;;;21.50;99.90;;;;;;4976669;28;20242;-71
2024/01/14 12:34:49;;;;;;;29.80;5.20;;;21.50;99.90;;;;;;4976467;28;20237;-70
2024/01/14 12:37:16;;;;;;;34.13;6.10;;;21.60;99.90;;;;;;4976634;28;20175;-70
2024/01/14 12:39:44;;;;;;;24.40;5.07;;;21.70;99.90;;;;;;4976102;28;20173;-73
2024/01/14 12:45:34;;;;;;;31.67;5.83;;;21.70;99.90;;;;;;4975912;28;20274;-74
2024/01/14 12:48:03;;;;;;;31.83;6.23;;;21.70;99.90;;;;;;4976569;28;20174;-70
2024/01/14 12:50:36;;;;;;;38.77;7.00;;;21.80;99.90;;;;;;4976293;28;20180;-71
2024/01/14 12:53:11;;;;;;;37.37;6.40;;;21.80;99.90;;;;;;4976543;28;20243;-74
2024/01/14 12:55:40;;;;;;;35.23;6.30;;;21.80;99.90;;;;;;4976337;28;20624;-73
2024/01/14 12:58:08;;;;;;;35.07;6.43;;;21.90;99.90;;;;;;4976284;28;20185;-74
2024/01/14 13:00:38;;;;;;;29.43;5.50;;;21.80;99.90;;;;;;4974760;28;20218;-74
2024/01/14 13:03:06;;;;;;;30.97;5.47;;;21.90;99.90;;;;;;4976087;28;20644;-74
2024/01/14 13:05:34;;;;;;;40.17;5.83;;;21.80;99.90;;;;;;4975908;28;20186;-74
2024/01/14 13:08:05;;;;;;;35.97;5.50;;;21.90;99.90;;;;;;4976141;28;20230;-74
2024/01/14 13:10:33;;;;;;;31.60;4.77;;;21.90;99.90;;;;;;4975971;28;20617;-74
2024/01/14 13:13:00;;;;;;;28.20;5.23;;;21.90;99.90;;;;;;4976085;28;20733;-73
2024/01/14 13:15:28;;;;;;;41.13;5.67;;;21.90;99.90;;;;;;4975802;28;20254;-74
2024/01/14 13:17:58;;;;;;;37.10;5.80;;;21.90;99.90;;;;;;4975450;28;20534;-72
2024/01/14 13:20:26;;;;;;;37.40;7.00;;;21.90;99.90;;;;;;4975471;28;20212;-73
2024/01/14 13:22:54;;;;;;;26.83;5.83;;;21.90;99.90;;;;;;4975434;28;20691;-74